createdAt,value
2023-01-04T00:04:00.158Z,4139.9
2023-01-04T00:09:35.961Z,4134.9
2023-01-04T00:15:12.460Z,4137.8
2023-01-04T00:20:47.575Z,4134.1
2023-01-04T00:26:22.904Z,4135.7
2023-01-04T00:31:57.550Z,4136.1
2023-01-04T00:37:32.726Z,4134.7
2023-01-04T00:43:09.319Z,4137.1
2023-01-04T00:49:06.563Z,4131.7
2023-01-04T00:54:39.566Z,4131.4
2023-01-04T01:00:14.879Z,4133.4
2023-01-04T01:05:51.278Z,4133.4
2023-01-04T01:11:26.200Z,4132.6
2023-01-04T01:17:09.676Z,4132.6
2023-01-04T01:22:46.311Z,4132.2
2023-01-04T01:28:21.189Z,4122.3
2023-01-04T01:33:56.921Z,4129.9
2023-01-04T01:39:33.781Z,4133.9
2023-01-04T01:45:08.820Z,4125.7
2023-01-04T01:50:43.703Z,4130
2023-01-04T01:56:18.879Z,4128.5
2023-01-04T02:01:56.775Z,4129
2023-01-04T02:07:32.967Z,4129.4
2023-01-04T02:13:08.162Z,4127.4
2023-01-04T02:18:44.260Z,4128.4
2023-01-04T02:24:21.128Z,4124.5
2023-01-04T02:29:59.245Z,4126.7
2023-01-04T02:35:34.348Z,4130.4
2023-01-04T02:41:10.147Z,4125.7
2023-01-04T02:47:08.341Z,4121.7
2023-01-04T02:52:41.586Z,4119.3
2023-01-04T02:58:17.090Z,4124.5
2023-01-04T03:04:00.272Z,4125.9
2023-01-04T03:09:35.715Z,4125.9
2023-01-04T03:15:11.481Z,4123.3
2023-01-04T03:20:46.448Z,4124.9
2023-01-04T03:26:25.087Z,4121.2
2023-01-04T03:32:00.606Z,4121.3
2023-01-04T03:37:35.779Z,4121.2
2023-01-04T03:43:11.247Z,4122.7
2023-01-04T03:49:08.736Z,4116.8
2023-01-04T03:54:41.873Z,4120.8
2023-01-04T04:00:18.500Z,4119
2023-01-04T04:05:54.108Z,4120.2
2023-01-04T04:11:29.560Z,4117.3
2023-01-04T04:17:04.687Z,4118.5
2023-01-04T04:22:39.915Z,4121.2
2023-01-04T04:28:14.722Z,4120.3
2023-01-04T04:33:49.916Z,4118.3
2023-01-04T04:39:25.618Z,4116.3
2023-01-04T04:45:01.878Z,4118.8
2023-01-04T04:50:37.594Z,4117.8
2023-01-04T04:56:12.706Z,4118.5
2023-01-04T05:01:50.150Z,4114.5
2023-01-04T05:07:25.614Z,4114.8
2023-01-04T05:13:01.579Z,4118.7
2023-01-04T05:18:37.922Z,4114.1
2023-01-04T05:24:14.331Z,4116.3
2023-01-04T05:29:51.046Z,4113.8
2023-01-04T05:35:25.883Z,4112.5
2023-01-04T05:41:02.023Z,4112.3
2023-01-04T05:46:59.156Z,4107.1
2023-01-04T05:52:32.163Z,4109.8
2023-01-04T05:58:07.907Z,4112.5
2023-01-04T06:03:45.084Z,4111.8
2023-01-04T06:09:20.711Z,4110.8
2023-01-04T06:14:56.046Z,4111.5
2023-01-04T06:20:31.228Z,4108.6
2023-01-04T06:26:06.997Z,4108.6
2023-01-04T06:31:42.187Z,4109.6
2023-01-04T06:37:26.365Z,4109.3
2023-01-04T06:43:02.111Z,4108.8
2023-01-04T06:48:59.019Z,4105.6
2023-01-04T06:54:32.242Z,4105.9
2023-01-04T07:00:08.865Z,4108.3
2023-01-04T07:05:45.261Z,4108.4
2023-01-04T07:11:20.376Z,4106.6
2023-01-04T07:16:55.371Z,4108.1
2023-01-04T07:22:31.591Z,4109.3
2023-01-04T07:28:07.113Z,4105.4
2023-01-04T07:33:42.716Z,4103.1
2023-01-04T07:39:17.981Z,4101.9
2023-01-04T07:44:53.058Z,4105.3
2023-01-04T07:50:29.745Z,4107.4
2023-01-04T07:56:05.524Z,4122
2023-01-04T08:01:53.968Z,4133.2
2023-01-04T08:07:30.135Z,4185.3
2023-01-04T08:13:08.996Z,4173.4
2023-01-04T08:18:44.416Z,4188.7
2023-01-04T08:24:33.088Z,4183.8
2023-01-04T08:30:11.244Z,4173.8
2023-01-04T08:36:31.347Z,4206.8
2023-01-04T08:42:33.093Z,4188.7
2023-01-04T08:48:30.294Z,4177.6
2023-01-04T08:54:04.718Z,4182
2023-01-04T08:59:43.233Z,4179.1
2023-01-04T09:05:31.985Z,4183.6
2023-01-04T09:11:21.921Z,4201.2
2023-01-04T09:16:57.212Z,4204.6
2023-01-04T09:22:33.526Z,4188.5
2023-01-04T09:28:21.282Z,4186.5
2023-01-04T09:34:36.055Z,4194.7
2023-01-04T09:40:12.048Z,4201.4
2023-01-04T09:45:48.652Z,4181.1
2023-01-04T09:51:24.098Z,4205.4
2023-01-04T09:57:21.671Z,4200.1
2023-01-04T10:03:00.302Z,4182
2023-01-04T10:08:36.088Z,4183.5
2023-01-04T10:14:11.690Z,4208.1
2023-01-04T10:21:35.279Z,4194.5
2023-01-04T10:27:11.513Z,4206.4
2023-01-04T10:32:46.478Z,4181.3
2023-01-04T10:38:21.970Z,4209.8
2023-01-04T10:44:15.536Z,4195.9
2023-01-04T10:49:50.922Z,4190.9
2023-01-04T10:55:26.496Z,4208.8
2023-01-04T11:01:03.832Z,4197.7
2023-01-04T11:06:38.966Z,4185.7
2023-01-04T11:12:15.443Z,4201.9
2023-01-04T11:17:50.453Z,4215.8
2023-01-04T11:23:25.435Z,4190
2023-01-04T11:29:01.168Z,4215.1
2023-01-04T11:34:36.619Z,4196.2
2023-01-04T11:40:12.968Z,4198.4
2023-01-04T11:45:49.151Z,4203.1
2023-01-04T11:51:24.210Z,4204.2
2023-01-04T11:56:59.809Z,4210.8
2023-01-04T12:03:06.086Z,4211.3
2023-01-04T12:08:42.601Z,4218
2023-01-04T12:14:18.559Z,4200.4
2023-01-04T12:19:55.336Z,4209.1
2023-01-04T12:25:30.644Z,4206.9
2023-01-04T12:31:05.925Z,4194.2
2023-01-04T12:36:42.119Z,4211.1
2023-01-04T12:42:18.167Z,4206.4
2023-01-04T12:48:15.170Z,4216
2023-01-04T12:53:48.216Z,4215.6
2023-01-04T12:59:28.295Z,4218.5
2023-01-04T13:06:04.356Z,4219.2
2023-01-04T13:11:39.967Z,4203.2
2023-01-04T13:17:16.920Z,4225.5
2023-01-04T13:22:57.074Z,4207.9
2023-01-04T13:28:58.596Z,4205.1
2023-01-04T13:34:34.324Z,4224.9
2023-01-04T13:40:09.372Z,4207.4
2023-01-04T13:45:46.214Z,4220.3
2023-01-04T13:51:21.523Z,4215.5
2023-01-04T13:56:57.373Z,4219.7
2023-01-04T14:02:34.678Z,4215.6
2023-01-04T14:08:10.180Z,4213.8
2023-01-04T14:13:45.436Z,4205.6
2023-01-04T14:19:22.099Z,4221.8
2023-01-04T14:25:13.171Z,4223.2
2023-01-04T14:30:50.218Z,4210.4
2023-01-04T14:36:25.412Z,4205.9
2023-01-04T14:42:01.306Z,4215.3
2023-01-04T14:47:58.222Z,4212.8
2023-01-04T14:53:31.544Z,4196.4
2023-01-04T14:59:06.536Z,4194.5
2023-01-04T15:04:41.462Z,4191.9
2023-01-04T15:10:16.936Z,4186.8
2023-01-04T15:15:52.881Z,4193.5
2023-01-04T15:21:28.637Z,4187.7
2023-01-04T15:27:04.577Z,4179.8
2023-01-04T15:32:39.703Z,4178.8
2023-01-04T15:38:19.769Z,4179.5
2023-01-04T15:43:55.056Z,4180.3
2023-01-04T15:49:51.475Z,4177.1
2023-01-04T15:55:24.092Z,4175.9
2023-01-04T16:01:08.649Z,4176.3
2023-01-04T16:06:44.451Z,4173.6
2023-01-04T16:12:19.864Z,4172.6
2023-01-04T16:17:55.524Z,4171.4
2023-01-04T16:23:30.667Z,4170.7
2023-01-04T16:29:07.658Z,4170.6
2023-01-04T16:34:43.519Z,4171.1
2023-01-04T16:40:18.842Z,4169.6
2023-01-04T16:45:54.275Z,4170.1
2023-01-04T16:51:29.466Z,4165.9
2023-01-04T16:57:06.787Z,4166.1
2023-01-04T17:02:49.808Z,4166.9
2023-01-04T17:08:39.931Z,4166.9
2023-01-04T17:14:17.997Z,4165.7
2023-01-04T17:19:56.334Z,4163
2023-01-04T17:25:33.080Z,4163.5
2023-01-04T17:31:08.915Z,4161.7
2023-01-04T17:36:45.158Z,4164.2
2023-01-04T17:42:20.807Z,4161
2023-01-04T17:47:56.467Z,4161.4
2023-01-04T17:53:31.927Z,4160.4
2023-01-04T17:59:07.429Z,4160.5
2023-01-04T18:04:42.387Z,4157.9
2023-01-04T18:11:09.582Z,4162
2023-01-04T18:16:48.535Z,4156.7
2023-01-04T18:22:37.752Z,4157.5
2023-01-04T18:28:31.248Z,4157.2
2023-01-04T18:34:48.249Z,4159
2023-01-04T18:41:08.625Z,4158
2023-01-04T18:46:53.270Z,4158.9
2023-01-04T18:52:28.513Z,4156.3
2023-01-04T18:58:04.240Z,4160.5
2023-01-04T19:03:40.087Z,4156.7
2023-01-04T19:09:15.825Z,4159.5
2023-01-04T19:14:58.899Z,4157.4
2023-01-04T19:20:36.762Z,4157.3
2023-01-04T19:26:26.493Z,4156.3
2023-01-04T19:32:03.124Z,4154.5
2023-01-04T19:37:41.595Z,4155.5
2023-01-04T19:43:34.305Z,4154.7
2023-01-04T19:49:16.871Z,4154.2
2023-01-04T19:55:16.979Z,4153.2
2023-01-04T20:01:04.853Z,4155
2023-01-04T20:06:42.402Z,4154.3
2023-01-04T20:12:23.534Z,4154.2
2023-01-04T20:17:59.159Z,4154.7
2023-01-04T20:23:35.875Z,4150.8
2023-01-04T20:29:19.121Z,4151.7
2023-01-04T20:34:54.289Z,4150.3
2023-01-04T20:40:39.018Z,4150.3
2023-01-04T20:46:15.540Z,4154.3
2023-01-04T20:51:59.165Z,4149.1
2023-01-04T20:57:35.510Z,4151.8
2023-01-04T21:03:13.720Z,4151.5
2023-01-04T21:08:56.349Z,4149.8
2023-01-04T21:14:34.846Z,4151
2023-01-04T21:20:26.571Z,4149.5
2023-01-04T21:26:12.223Z,4150.3
2023-01-04T21:31:51.784Z,4150.3
2023-01-04T21:37:49.366Z,4148.3
2023-01-04T21:43:29.299Z,4150
2023-01-04T21:49:11.057Z,4148.6
2023-01-04T21:54:46.796Z,4149.3
2023-01-04T22:00:30.912Z,4149.1
2023-01-04T22:06:06.644Z,4148.1
2023-01-04T22:11:54.675Z,4147.5
2023-01-04T22:17:55.028Z,4149.8
2023-01-04T22:23:31.334Z,4146.5
2023-01-04T22:29:06.048Z,4147.6
2023-01-04T22:35:09.462Z,4145.3
2023-01-04T22:42:21.355Z,4146.3
2023-01-04T22:48:06.170Z,4145.6
2023-01-04T22:53:41.865Z,4145.1
2023-01-04T22:59:23.735Z,4142.6
2023-01-04T23:05:08.991Z,4141.9
2023-01-04T23:10:44.719Z,4143.8
2023-01-04T23:16:34.757Z,4146.5
2023-01-04T23:22:43.987Z,4144.6
2023-01-04T23:28:49.946Z,4142.8
2023-01-04T23:34:25.383Z,4143.8
2023-01-04T23:40:08.533Z,4141.6
2023-01-04T23:46:01.573Z,4141.1
2023-01-04T23:51:46.014Z,4142.6
2023-01-04T23:58:03.314Z,4141.6
